createdAt,value
2023-02-20T00:00:35.797Z,10.32
2023-02-20T00:03:02.586Z,8.18
2023-02-20T00:05:28.897Z,10.60
2023-02-20T00:07:55.320Z,9.82
2023-02-20T00:10:21.702Z,7.97
2023-02-20T00:12:48.117Z,9.85
2023-02-20T00:15:16.222Z,8.48
2023-02-20T00:17:43.306Z,11.60
2023-02-20T00:20:10.043Z,11.40
2023-02-20T00:22:36.434Z,9.60
2023-02-20T00:25:02.848Z,8.88
2023-02-20T00:27:29.256Z,9.82
2023-02-20T00:29:55.531Z,7.93
2023-02-20T00:32:21.815Z,9.32
2023-02-20T00:34:48.155Z,10.48
2023-02-20T00:37:14.578Z,9.18
2023-02-20T00:39:40.861Z,9.15
2023-02-20T00:42:07.272Z,11.45
2023-02-20T00:44:33.584Z,9.02
2023-02-20T00:46:59.887Z,9.20
2023-02-20T00:49:26.472Z,8.27
2023-02-20T00:51:52.842Z,10.90
2023-02-20T00:54:19.182Z,10.13
2023-02-20T00:56:45.500Z,8.80
2023-02-20T00:59:11.786Z,8.63
2023-02-20T01:01:38.307Z,9.32
2023-02-20T01:04:04.715Z,9.15
2023-02-20T01:06:31.105Z,7.97
2023-02-20T01:08:57.728Z,10.07
2023-02-20T01:11:24.027Z,10.98
2023-02-20T01:13:50.607Z,12.93
2023-02-20T01:16:16.945Z,8.40
2023-02-20T01:18:43.240Z,11.18
2023-02-20T01:21:09.595Z,9.30
2023-02-20T01:23:35.907Z,9.75
2023-02-20T01:26:02.270Z,10.98
2023-02-20T01:28:28.657Z,10.77
2023-02-20T01:36:13.126Z,10.73
2023-02-20T01:41:08.645Z,10.15
2023-02-20T01:43:35.067Z,9.35
2023-02-20T01:46:39.763Z,11.98
2023-02-20T01:49:11.810Z,10.18
2023-02-20T01:51:42.601Z,14.25
2023-02-20T01:54:14.278Z,11.90
2023-02-20T01:56:41.736Z,11.63
2023-02-20T01:59:09.146Z,9.60
2023-02-20T02:01:35.736Z,8.30
2023-02-20T02:04:06.317Z,8.30
2023-02-20T02:06:34.146Z,10.57
2023-02-20T02:09:09.030Z,9.02
2023-02-20T02:11:35.500Z,11.60
2023-02-20T02:14:01.857Z,12.30
2023-02-20T02:16:49.044Z,10.57
2023-02-20T02:19:24.594Z,11.10
2023-02-20T02:22:09.129Z,10.95
2023-02-20T02:25:13.968Z,10.50
2023-02-20T02:27:59.073Z,12.07
2023-02-20T02:30:50.291Z,12.82
2023-02-20T02:33:40.751Z,11.60
2023-02-20T02:36:22.136Z,12.35
2023-02-20T02:39:00.809Z,11.15
2023-02-20T02:41:42.042Z,11.40
2023-02-20T02:44:18.020Z,11.70
2023-02-20T02:46:53.852Z,11.93
2023-02-20T02:49:30.434Z,11.98
2023-02-20T02:51:59.025Z,13.07
2023-02-20T02:54:27.899Z,13.93
2023-02-20T02:57:25.306Z,14.23
2023-02-20T03:00:00.349Z,16.23
2023-02-20T03:02:32.908Z,14.50
2023-02-20T03:05:04.552Z,14.48
2023-02-20T03:07:36.375Z,12.52
2023-02-20T03:10:08.586Z,16.48
2023-02-20T03:12:38.306Z,13.88
2023-02-20T03:15:14.101Z,13.32
2023-02-20T03:17:47.186Z,16.40
2023-02-20T03:20:18.387Z,14.48
2023-02-20T03:22:52.669Z,12.40
2023-02-20T03:25:25.953Z,13.80
2023-02-20T03:27:59.131Z,11.98
2023-02-20T03:30:34.826Z,14.43
2023-02-20T03:33:12.126Z,12.40
2023-02-20T03:35:42.575Z,13.15
2023-02-20T03:38:10.218Z,15.68
2023-02-20T03:43:09.729Z,14.00
2023-02-20T03:45:39.763Z,12.77
2023-02-20T03:48:15.430Z,10.05
2023-02-20T03:50:42.190Z,12.98
2023-02-20T03:53:08.549Z,16.55
2023-02-20T03:55:34.994Z,16.45
2023-02-20T03:58:05.242Z,14.10
2023-02-20T04:00:36.368Z,13.40
2023-02-20T04:03:10.513Z,12.57
2023-02-20T04:05:40.773Z,13.15
2023-02-20T04:08:15.815Z,14.15
2023-02-20T04:10:48.452Z,16.55
2023-02-20T04:13:16.339Z,14.40
2023-02-20T04:15:43.897Z,14.95
2023-02-20T04:20:38.355Z,12.68
2023-02-20T04:23:15.658Z,15.30
2023-02-20T04:25:46.858Z,13.20
2023-02-20T04:28:15.209Z,13.57
2023-02-20T04:30:41.937Z,13.90
2023-02-20T04:33:11.377Z,14.10
2023-02-20T04:35:37.739Z,14.48
2023-02-20T04:38:04.040Z,13.02
2023-02-20T04:40:30.456Z,11.75
2023-02-20T04:42:56.902Z,13.13
2023-02-20T04:45:23.202Z,13.70
2023-02-20T04:47:49.575Z,15.10
2023-02-20T04:50:27.510Z,17.17
2023-02-20T04:52:54.216Z,15.43
2023-02-20T04:55:20.925Z,13.93
2023-02-20T04:57:48.368Z,11.90
2023-02-20T05:00:16.359Z,13.60
2023-02-20T05:02:42.660Z,12.43
2023-02-20T05:05:21.346Z,11.00
2023-02-20T05:07:48.082Z,13.48
2023-02-20T05:10:16.446Z,9.93
2023-02-20T05:12:42.779Z,11.13
2023-02-20T05:15:09.852Z,12.15
2023-02-20T05:17:36.650Z,9.63
2023-02-20T05:20:04.921Z,9.65
2023-02-20T05:22:31.254Z,9.52
2023-02-20T05:24:57.663Z,11.38
2023-02-20T05:27:25.138Z,10.57
2023-02-20T05:29:53.868Z,12.27
2023-02-20T05:32:22.506Z,11.00
2023-02-20T05:34:49.439Z,10.38
2023-02-20T05:37:17.507Z,11.13
2023-02-20T05:39:44.079Z,14.57
2023-02-20T05:42:10.462Z,12.38
2023-02-20T05:44:36.958Z,13.63
2023-02-20T05:47:04.603Z,9.07
2023-02-20T05:51:58.346Z,10.43
2023-02-20T05:54:24.731Z,9.15
2023-02-20T05:56:51.733Z,9.48
2023-02-20T05:59:21.129Z,11.35
2023-02-20T06:01:49.698Z,14.30
2023-02-20T06:04:16.095Z,10.23
2023-02-20T06:06:42.839Z,12.80
2023-02-20T06:09:11.101Z,11.57
2023-02-20T06:11:38.118Z,12.40
2023-02-20T06:14:05.943Z,10.30
2023-02-20T06:16:34.815Z,12.60
2023-02-20T06:19:01.690Z,11.70
2023-02-20T06:21:28.255Z,11.07
2023-02-20T06:23:55.508Z,10.63
2023-02-20T06:26:23.006Z,10.50
2023-02-20T06:28:49.495Z,10.45
2023-02-20T06:31:25.871Z,11.15
2023-02-20T06:33:53.343Z,10.75
2023-02-20T06:36:35.313Z,11.32
2023-02-20T06:39:01.718Z,11.60
2023-02-20T06:41:28.111Z,8.40
2023-02-20T06:43:54.551Z,8.95
2023-02-20T06:46:21.738Z,9.05
2023-02-20T06:48:53.912Z,12.30
2023-02-20T06:51:23.086Z,8.52
2023-02-20T06:53:49.633Z,9.88
2023-02-20T06:56:21.752Z,10.10
2023-02-20T06:58:50.416Z,10.43
2023-02-20T07:01:18.222Z,14.63
2023-02-20T07:03:45.966Z,11.23
2023-02-20T07:06:12.894Z,9.80
2023-02-20T07:08:39.403Z,13.20
2023-02-20T07:11:05.808Z,8.70
2023-02-20T07:13:32.145Z,9.45
2023-02-20T07:15:58.598Z,9.77
2023-02-20T07:18:25.036Z,9.18
2023-02-20T07:20:53.079Z,9.00
2023-02-20T07:23:21.745Z,8.55
2023-02-20T07:25:48.364Z,9.93
2023-02-20T07:28:14.804Z,7.20
2023-02-20T07:30:41.209Z,10.70
2023-02-20T07:33:07.618Z,10.05
2023-02-20T07:35:33.938Z,13.70
2023-02-20T07:38:00.424Z,10.05
2023-02-20T07:40:26.823Z,8.32
2023-02-20T07:42:53.271Z,7.70
2023-02-20T07:45:20.377Z,9.80
2023-02-20T07:47:46.902Z,12.52
2023-02-20T07:50:15.567Z,9.07
2023-02-20T08:00:49.646Z,8.48
2023-02-20T08:03:15.930Z,5.93
2023-02-20T08:05:49.011Z,6.95
2023-02-20T08:08:16.396Z,5.72
2023-02-20T08:10:42.679Z,6.70
2023-02-20T08:13:09.179Z,9.23
2023-02-20T08:15:35.511Z,7.40
2023-02-20T08:18:02.488Z,7.80
2023-02-20T08:20:29.665Z,6.72
2023-02-20T08:22:56.359Z,7.60
2023-02-20T08:25:22.814Z,5.65
2023-02-20T08:27:49.843Z,5.35
2023-02-20T08:30:21.468Z,9.77
2023-02-20T08:32:47.993Z,4.93
2023-02-20T08:35:14.651Z,9.70
2023-02-20T08:37:40.973Z,3.55
2023-02-20T08:40:08.220Z,5.38
2023-02-20T08:42:34.912Z,5.93
2023-02-20T08:45:02.299Z,6.68
2023-02-20T08:47:28.753Z,5.72
2023-02-20T08:49:55.058Z,4.50
2023-02-20T08:52:21.807Z,5.40
2023-02-20T08:54:49.769Z,3.15
2023-02-20T08:57:17.238Z,6.50
2023-02-20T08:59:43.745Z,7.22
2023-02-20T09:02:24.268Z,5.05
2023-02-20T09:04:51.005Z,3.95
2023-02-20T09:07:17.355Z,4.32
2023-02-20T09:09:43.698Z,4.82
2023-02-20T09:12:10.248Z,3.47
2023-02-20T09:14:37.329Z,3.78
2023-02-20T09:17:04.786Z,4.82
2023-02-20T09:21:57.980Z,5.47
2023-02-20T09:24:24.302Z,4.75
2023-02-20T09:26:50.662Z,4.07
2023-02-20T09:29:17.379Z,5.00
2023-02-20T09:31:43.787Z,4.72
2023-02-20T09:34:10.287Z,6.30
2023-02-20T09:36:36.618Z,4.05
2023-02-20T09:39:03.189Z,5.07
2023-02-20T09:41:49.302Z,6.43
2023-02-20T09:44:27.058Z,5.22
2023-02-20T09:47:00.459Z,3.05
2023-02-20T09:49:32.220Z,4.97
2023-02-20T09:52:05.867Z,3.65
2023-02-20T09:54:41.463Z,8.20
2023-02-20T09:57:14.036Z,5.85
2023-02-20T09:59:52.317Z,5.97
2023-02-20T10:02:24.163Z,3.30
2023-02-20T10:05:01.156Z,5.25
2023-02-20T10:07:36.477Z,3.78
2023-02-20T10:10:18.661Z,2.80
2023-02-20T10:13:16.539Z,6.32
2023-02-20T10:15:55.343Z,4.28
2023-02-20T10:18:36.681Z,5.13
2023-02-20T10:21:20.150Z,3.45
2023-02-20T10:24:04.918Z,3.50
2023-02-20T10:26:43.616Z,5.50
2023-02-20T10:29:29.094Z,3.28
2023-02-20T10:32:10.792Z,2.17
2023-02-20T10:34:49.790Z,3.65
2023-02-20T10:37:19.791Z,2.90
2023-02-20T10:39:53.461Z,4.22
2023-02-20T10:42:25.679Z,2.25
2023-02-20T10:45:00.779Z,2.83
2023-02-20T10:47:40.700Z,3.80
2023-02-20T10:50:06.975Z,5.50
2023-02-20T10:52:43.630Z,5.03
2023-02-20T10:55:20.844Z,3.90
2023-02-20T10:58:08.668Z,3.67
2023-02-20T11:00:53.951Z,2.75
2023-02-20T11:03:32.632Z,5.40
2023-02-20T11:06:02.080Z,4.22
2023-02-20T11:08:28.600Z,2.95
2023-02-20T11:10:59.963Z,3.67
2023-02-20T11:13:26.618Z,4.25
2023-02-20T11:15:57.512Z,3.00
2023-02-20T11:18:30.842Z,4.35
2023-02-20T11:20:57.283Z,3.15
2023-02-20T11:23:37.269Z,5.15
2023-02-20T11:26:36.140Z,2.40
2023-02-20T11:29:13.557Z,5.90
2023-02-20T11:31:40.179Z,3.88
2023-02-20T11:34:15.971Z,2.58
2023-02-20T11:36:46.537Z,4.07
2023-02-20T11:39:20.023Z,2.88
2023-02-20T11:41:47.905Z,4.00
2023-02-20T11:44:24.105Z,3.35
2023-02-20T11:47:10.063Z,4.13
2023-02-20T11:49:36.605Z,2.25
2023-02-20T11:52:22.953Z,3.47
2023-02-20T11:55:18.217Z,3.97
2023-02-20T11:57:44.920Z,5.55
2023-02-20T12:00:18.595Z,3.00
2023-02-20T12:02:48.900Z,4.25
2023-02-20T12:05:15.517Z,3.85
2023-02-20T12:07:43.385Z,2.65
2023-02-20T12:10:31.190Z,3.13
2023-02-20T12:12:58.231Z,3.33
2023-02-20T12:15:27.557Z,2.65
2023-02-20T12:18:07.357Z,4.28
2023-02-20T12:20:37.101Z,3.78
2023-02-20T12:23:25.735Z,3.00
2023-02-20T12:26:10.660Z,2.97
2023-02-20T12:28:50.127Z,2.05
2023-02-20T12:33:56.719Z,1.75
2023-02-20T12:36:40.603Z,2.47
2023-02-20T12:39:06.876Z,3.35
2023-02-20T12:42:02.913Z,3.50
2023-02-20T12:44:46.162Z,3.83
2023-02-20T12:47:18.498Z,3.00
2023-02-20T12:49:58.919Z,2.88
2023-02-20T12:53:02.615Z,4.30
2023-02-20T12:58:26.168Z,2.60
2023-02-20T13:00:56.542Z,2.97
2023-02-20T13:03:41.178Z,2.42
2023-02-20T13:06:08.597Z,5.40
2023-02-20T13:09:05.391Z,3.00
2023-02-20T13:11:38.506Z,3.03
2023-02-20T13:14:25.376Z,4.10
2023-02-20T13:17:10.403Z,2.30
2023-02-20T13:19:45.906Z,2.25
2023-02-20T13:22:12.350Z,4.15
2023-02-20T13:24:39.950Z,2.58
2023-02-20T13:27:09.098Z,3.22
2023-02-20T13:29:56.413Z,2.40
2023-02-20T13:32:26.732Z,3.70
2023-02-20T13:34:53.118Z,3.88
2023-02-20T13:37:34.411Z,2.53
2023-02-20T13:40:28.629Z,2.65
2023-02-20T13:43:13.359Z,2.80
2023-02-20T13:45:41.939Z,3.63
2023-02-20T13:48:37.358Z,1.90
2023-02-20T13:51:15.758Z,3.65
2023-02-20T13:53:48.129Z,2.70
2023-02-20T13:56:19.573Z,2.60
2023-02-20T13:58:46.883Z,2.22
2023-02-20T14:03:39.641Z,2.35
2023-02-20T14:06:16.622Z,2.47
2023-02-20T14:09:10.938Z,1.50
2023-02-20T14:11:39.752Z,1.50
2023-02-20T14:14:28.093Z,2.08
2023-02-20T14:17:04.261Z,2.55
2023-02-20T14:19:31.055Z,1.63
2023-02-20T14:22:13.917Z,1.20
2023-02-20T14:24:40.244Z,2.08
2023-02-20T14:27:29.206Z,1.83
2023-02-20T14:30:05.929Z,1.90
2023-02-20T14:32:32.433Z,3.72
2023-02-20T14:35:33.217Z,1.23
2023-02-20T14:38:04.651Z,2.35
2023-02-20T14:40:42.667Z,1.10
2023-02-20T14:43:16.687Z,2.15
2023-02-20T14:45:45.111Z,1.15
2023-02-20T14:48:29.905Z,1.92
2023-02-20T14:51:12.496Z,2.35
2023-02-20T14:53:39.067Z,1.65
2023-02-20T14:56:16.716Z,4.22
2023-02-20T14:58:46.745Z,3.25
2023-02-20T15:01:26.677Z,2.30
2023-02-20T15:04:03.510Z,2.35
2023-02-20T15:06:33.833Z,3.38
2023-02-20T15:09:09.797Z,1.25
2023-02-20T15:12:19.778Z,1.50
2023-02-20T15:14:52.977Z,2.33
2023-02-20T15:17:23.583Z,1.27
2023-02-20T15:19:50.258Z,2.10
2023-02-20T15:22:32.247Z,2.75
2023-02-20T15:25:28.012Z,1.88
2023-02-20T15:28:25.162Z,2.15
2023-02-20T15:31:06.547Z,2.38
2023-02-20T15:33:36.422Z,2.30
2023-02-20T15:36:04.618Z,2.92
2023-02-20T15:38:34.229Z,2.20
2023-02-20T15:41:03.547Z,1.25
2023-02-20T15:43:43.224Z,2.33
2023-02-20T15:46:12.820Z,1.65
2023-02-20T15:48:39.344Z,3.60
2023-02-20T15:51:06.206Z,1.70
2023-02-20T15:53:33.580Z,1.25
2023-02-20T15:58:35.526Z,1.75
2023-02-20T16:01:02.440Z,1.77
2023-02-20T16:03:33.892Z,1.70
2023-02-20T16:06:05.802Z,1.80
2023-02-20T16:08:32.120Z,2.78
2023-02-20T16:10:58.572Z,1.92
2023-02-20T16:13:35.611Z,1.45
2023-02-20T16:16:24.920Z,2.28
2023-02-20T16:18:52.034Z,2.70
2023-02-20T16:21:20.951Z,2.92
2023-02-20T16:23:47.396Z,3.20
2023-02-20T16:26:14.555Z,1.45
2023-02-20T16:31:07.487Z,3.10
2023-02-20T16:33:34.140Z,2.05
2023-02-20T16:36:00.788Z,4.53
2023-02-20T16:38:27.079Z,2.88
2023-02-20T16:40:53.400Z,1.90
2023-02-20T16:43:21.726Z,1.98
2023-02-20T16:45:50.963Z,2.72
2023-02-20T16:48:20.110Z,2.30
2023-02-20T16:50:51.808Z,2.50
2023-02-20T16:53:19.523Z,3.15
2023-02-20T16:55:46.319Z,3.17
2023-02-20T16:58:13.753Z,2.75
2023-02-20T17:03:23.353Z,3.70
2023-02-20T17:05:49.680Z,2.05
2023-02-20T17:08:16.018Z,1.80
2023-02-20T17:10:42.441Z,1.50
2023-02-20T17:13:08.743Z,3.33
2023-02-20T17:15:37.323Z,1.85
2023-02-20T17:18:04.866Z,2.88
2023-02-20T17:20:31.398Z,2.90
2023-02-20T17:23:04.745Z,4.30
2023-02-20T17:25:32.911Z,1.80
2023-02-20T17:27:59.230Z,1.63
2023-02-20T17:30:25.944Z,2.55
2023-02-20T17:32:53.408Z,2.70
2023-02-20T17:37:46.192Z,3.10
2023-02-20T17:40:12.743Z,3.15
2023-02-20T17:42:39.090Z,2.47
2023-02-20T17:45:05.774Z,2.25
2023-02-20T17:47:32.128Z,2.08
2023-02-20T17:49:58.704Z,3.70
2023-02-20T17:52:25.123Z,1.95
2023-02-20T17:54:52.420Z,3.88
2023-02-20T17:57:19.571Z,2.75
2023-02-20T17:59:47.363Z,4.35
2023-02-20T18:02:14.078Z,3.05
2023-02-20T18:04:41.661Z,3.47
2023-02-20T18:07:09.865Z,4.57
2023-02-20T18:09:36.248Z,3.33
2023-02-20T18:12:03.738Z,2.78
2023-02-20T18:16:56.606Z,2.80
2023-02-20T18:19:23.173Z,3.25
2023-02-20T18:21:50.214Z,3.20
2023-02-20T18:24:24.090Z,4.47
2023-02-20T18:26:52.300Z,3.60
2023-02-20T18:29:18.683Z,3.80
2023-02-20T18:31:45.134Z,2.53
2023-02-20T18:34:11.655Z,3.00
2023-02-20T18:36:38.000Z,3.20
2023-02-20T18:39:05.678Z,3.72
2023-02-20T18:41:32.107Z,3.65
2023-02-20T18:43:58.517Z,3.28
2023-02-20T18:46:27.434Z,4.15
2023-02-20T18:48:54.170Z,3.80
2023-02-20T18:51:31.946Z,2.75
2023-02-20T18:53:58.308Z,3.55
2023-02-20T18:56:27.170Z,3.63
2023-02-20T18:58:53.905Z,4.38
2023-02-20T19:01:21.345Z,3.28
2023-02-20T19:06:25.107Z,2.63
2023-02-20T19:08:51.483Z,3.92
2023-02-20T19:11:17.824Z,3.97
2023-02-20T19:13:44.223Z,5.30
2023-02-20T19:16:10.600Z,4.75
2023-02-20T19:18:49.842Z,3.72
2023-02-20T19:21:18.068Z,6.10
2023-02-20T19:23:45.921Z,5.55
2023-02-20T19:26:12.980Z,3.42
2023-02-20T19:28:40.028Z,3.90
2023-02-20T19:31:06.656Z,5.70
2023-02-20T19:33:33.029Z,5.57
2023-02-20T19:36:00.640Z,5.82
2023-02-20T19:40:53.221Z,5.50
2023-02-20T19:43:19.697Z,6.53
2023-02-20T19:45:46.233Z,4.53
2023-02-20T19:48:12.666Z,5.53
2023-02-20T19:50:39.070Z,4.05
2023-02-20T19:53:05.553Z,5.60
2023-02-20T19:55:32.115Z,5.28
2023-02-20T19:57:59.485Z,5.63
2023-02-20T20:00:26.156Z,4.75
2023-02-20T20:02:52.492Z,4.22
2023-02-20T20:05:19.341Z,5.55
2023-02-20T20:07:45.757Z,5.28
2023-02-20T20:10:12.249Z,3.80
2023-02-20T20:12:38.570Z,4.43
2023-02-20T20:15:05.846Z,7.50
2023-02-20T20:17:32.404Z,4.13
2023-02-20T20:20:00.017Z,6.97
2023-02-20T20:22:30.903Z,6.38
2023-02-20T20:24:58.073Z,6.13
2023-02-20T20:27:24.413Z,6.40
2023-02-20T20:29:51.518Z,9.20
2023-02-20T20:32:19.604Z,5.07
2023-02-20T20:34:50.553Z,5.25
2023-02-20T20:37:17.061Z,4.32
2023-02-20T20:39:43.383Z,8.43
2023-02-20T20:42:09.707Z,5.70
2023-02-20T20:44:36.099Z,6.40
2023-02-20T20:47:02.451Z,6.60
2023-02-20T20:49:28.770Z,6.60
2023-02-20T20:51:55.084Z,5.80
2023-02-20T20:54:21.518Z,9.13
2023-02-20T20:56:49.943Z,6.50
2023-02-20T20:59:17.048Z,5.03
2023-02-20T21:01:44.581Z,4.93
2023-02-20T21:06:38.410Z,5.32
2023-02-20T21:09:04.739Z,5.68
2023-02-20T21:11:32.248Z,5.13
2023-02-20T21:14:00.137Z,3.13
2023-02-20T21:16:26.825Z,5.00
2023-02-20T21:18:53.283Z,6.40
2023-02-20T21:21:26.032Z,6.45
2023-02-20T21:23:52.616Z,5.18
2023-02-20T21:26:19.326Z,4.43
2023-02-20T21:28:45.947Z,5.15
2023-02-20T21:31:12.834Z,5.10
2023-02-20T21:33:40.055Z,3.70
2023-02-20T21:36:07.243Z,6.07
2023-02-20T21:38:34.349Z,2.78
2023-02-20T21:41:02.326Z,5.35
2023-02-20T21:43:28.636Z,6.50
2023-02-20T21:45:55.291Z,4.05
2023-02-20T21:48:21.626Z,5.20
2023-02-20T21:50:48.465Z,7.38
2023-02-20T21:53:14.834Z,5.40
2023-02-20T21:55:41.521Z,3.25
2023-02-20T21:58:08.015Z,4.35
2023-02-20T22:00:34.374Z,3.50
2023-02-20T22:03:00.827Z,3.85
2023-02-20T22:05:27.661Z,5.50
2023-02-20T22:07:54.015Z,4.78
2023-02-20T22:10:20.430Z,5.28
2023-02-20T22:12:46.898Z,4.25
2023-02-20T22:15:14.494Z,5.90
2023-02-20T22:17:40.930Z,4.88
2023-02-20T22:20:07.902Z,7.68
2023-02-20T22:22:34.336Z,2.97
2023-02-20T22:25:00.787Z,3.13
2023-02-20T22:27:27.172Z,4.22
2023-02-20T22:29:54.042Z,4.47
2023-02-20T22:32:21.083Z,4.43
2023-02-20T22:34:47.449Z,6.10
2023-02-20T22:37:13.723Z,3.65
2023-02-20T22:39:40.116Z,4.10
2023-02-20T22:42:06.609Z,3.92
2023-02-20T22:44:32.914Z,4.65
2023-02-20T22:46:59.293Z,4.30
2023-02-20T22:49:25.694Z,3.95
2023-02-20T22:51:52.023Z,4.88
2023-02-20T22:54:21.950Z,4.82
2023-02-20T22:56:48.311Z,4.65
2023-02-20T22:59:14.631Z,5.53
2023-02-20T23:01:40.980Z,3.53
2023-02-20T23:04:07.295Z,5.63
2023-02-20T23:06:33.706Z,4.72
2023-02-20T23:09:00.020Z,5.10
2023-02-20T23:11:26.345Z,3.88
2023-02-20T23:13:52.620Z,6.95
2023-02-20T23:16:21.241Z,7.00
2023-02-20T23:18:47.661Z,6.60
2023-02-20T23:21:14.764Z,4.35
2023-02-20T23:23:41.210Z,6.32
2023-02-20T23:26:07.881Z,7.03
2023-02-20T23:28:37.390Z,4.65
2023-02-20T23:31:04.355Z,6.10
2023-02-20T23:33:30.811Z,5.57
2023-02-20T23:35:57.118Z,6.78
2023-02-20T23:38:23.405Z,5.00
2023-02-20T23:40:49.757Z,4.75
2023-02-20T23:43:16.022Z,5.38
2023-02-20T23:45:42.496Z,5.90
2023-02-20T23:48:09.072Z,4.97
2023-02-20T23:50:35.449Z,5.63
2023-02-20T23:53:01.850Z,3.60
2023-02-20T23:55:28.309Z,5.03
2023-02-20T23:57:54.713Z,4.90
